createdAt,value
2022-11-04T00:01:53.874Z,1.00
2022-11-04T00:04:21.044Z,1.00
2022-11-04T00:06:47.781Z,1.00
2022-11-04T00:09:23.902Z,1.00
2022-11-04T00:12:08.937Z,1.00
2022-11-04T00:14:35.626Z,1.00
2022-11-04T00:17:22.180Z,1.00
2022-11-04T00:20:08.294Z,1.00
2022-11-04T00:22:53.521Z,1.00
2022-11-04T00:25:38.707Z,45.60
2022-11-04T00:28:34.090Z,99.90
2022-11-04T00:31:21.574Z,99.90
2022-11-04T00:33:48.884Z,99.90
2022-11-04T00:36:15.445Z,99.90
2022-11-04T00:38:42.116Z,99.90
2022-11-04T00:41:26.061Z,1.00
2022-11-04T00:43:53.507Z,1.00
2022-11-04T00:46:20.077Z,1.00
2022-11-04T00:48:46.646Z,1.00
2022-11-04T00:53:44.643Z,1.00
2022-11-04T00:56:11.187Z,1.00
2022-11-04T00:58:37.743Z,1.00
2022-11-04T01:01:10.563Z,1.00
2022-11-04T01:03:37.224Z,1.00
2022-11-04T01:06:03.822Z,1.00
2022-11-04T01:08:30.379Z,1.00
2022-11-04T01:10:56.928Z,1.00
2022-11-04T01:13:23.484Z,1.00
2022-11-04T01:15:50.040Z,1.00
2022-11-04T01:18:16.592Z,1.00
2022-11-04T01:20:43.151Z,1.00
2022-11-04T01:23:09.775Z,1.00
2022-11-04T01:25:39.306Z,1.00
2022-11-04T01:28:06.027Z,1.00
2022-11-04T01:30:32.815Z,1.00
2022-11-04T01:32:59.367Z,1.00
2022-11-04T01:35:25.899Z,1.00
2022-11-04T01:37:52.441Z,1.00
2022-11-04T01:40:19.264Z,99.90
2022-11-04T01:42:45.818Z,99.90
2022-11-04T01:45:13.319Z,99.90
2022-11-04T01:47:43.865Z,99.90
2022-11-04T01:50:14.474Z,99.90
2022-11-04T01:52:40.988Z,99.90
2022-11-04T01:55:09.794Z,99.90
2022-11-04T01:57:37.075Z,99.90
2022-11-04T02:00:04.853Z,99.90
2022-11-04T02:02:31.530Z,99.90
2022-11-04T02:04:58.142Z,99.90
2022-11-04T02:07:24.823Z,99.90
2022-11-04T02:09:51.378Z,99.90
2022-11-04T02:12:36.704Z,99.90
2022-11-04T02:15:03.488Z,99.90
2022-11-04T02:17:36.787Z,36.90
2022-11-04T02:20:16.875Z,1.00
2022-11-04T02:23:02.358Z,1.00
2022-11-04T02:25:28.971Z,1.00
2022-11-04T02:28:00.589Z,1.00
2022-11-04T02:30:27.289Z,1.00
2022-11-04T02:33:00.305Z,1.00
2022-11-04T02:35:40.742Z,1.00
2022-11-04T02:38:25.975Z,1.00
2022-11-04T02:40:52.514Z,1.00
2022-11-04T02:43:37.326Z,99.90
2022-11-04T02:46:27.185Z,99.90
2022-11-04T02:48:55.394Z,27.70
2022-11-04T02:51:31.351Z,1.00
2022-11-04T02:54:13.234Z,1.00
2022-11-04T02:56:41.097Z,1.00
2022-11-04T02:59:09.789Z,1.00
2022-11-04T03:01:37.278Z,1.00
2022-11-04T03:04:06.235Z,1.00
2022-11-04T03:06:32.768Z,1.00
2022-11-04T03:08:59.318Z,1.00
2022-11-04T03:11:25.934Z,1.00
2022-11-04T03:13:54.757Z,1.00
2022-11-04T03:16:22.919Z,1.00
2022-11-04T03:18:52.832Z,99.90
2022-11-04T03:21:20.032Z,99.90
2022-11-04T03:23:46.597Z,99.90
2022-11-04T03:26:23.971Z,99.90
2022-11-04T03:28:52.487Z,99.90
2022-11-04T03:31:23.900Z,99.90
2022-11-04T03:33:50.966Z,99.90
2022-11-04T03:36:17.695Z,99.90
2022-11-04T03:38:44.263Z,99.90
2022-11-04T03:41:14.508Z,99.90
2022-11-04T03:43:41.102Z,99.90
2022-11-04T03:46:07.640Z,99.90
2022-11-04T03:48:34.254Z,99.90
2022-11-04T03:51:01.246Z,99.90
2022-11-04T03:53:27.789Z,99.90
2022-11-04T03:56:06.313Z,99.90
2022-11-04T03:58:36.730Z,99.90
2022-11-04T04:01:18.065Z,99.90
2022-11-04T04:03:46.890Z,99.90
2022-11-04T04:06:15.526Z,99.90
2022-11-04T04:08:42.091Z,99.90
2022-11-04T04:11:13.292Z,99.90
2022-11-04T04:13:49.149Z,99.90
2022-11-04T04:16:16.898Z,99.90
2022-11-04T04:19:03.740Z,99.90
2022-11-04T04:21:35.123Z,99.90
2022-11-04T04:24:20.942Z,1.00
2022-11-04T04:27:05.817Z,1.00
2022-11-04T04:29:32.357Z,1.00
2022-11-04T04:31:58.958Z,1.00
2022-11-04T04:34:25.993Z,1.00
2022-11-04T04:36:57.489Z,99.90
2022-11-04T04:39:43.871Z,99.90
2022-11-04T04:42:28.843Z,99.90
2022-11-04T04:45:04.620Z,99.90
2022-11-04T04:47:32.585Z,99.90
2022-11-04T04:49:59.684Z,99.90
2022-11-04T04:52:27.168Z,99.90
2022-11-04T04:54:53.716Z,99.90
2022-11-04T04:57:20.276Z,99.90
2022-11-04T04:59:46.838Z,99.90
2022-11-04T05:02:13.521Z,99.90
2022-11-04T05:04:40.158Z,1.00
2022-11-04T05:07:10.053Z,1.00
2022-11-04T05:09:36.774Z,1.00
2022-11-04T05:12:03.345Z,1.00
2022-11-04T05:14:30.434Z,1.00
2022-11-04T05:16:56.961Z,1.00
2022-11-04T05:19:23.514Z,1.00
2022-11-04T05:21:50.041Z,1.00
2022-11-04T05:24:16.592Z,1.00
2022-11-04T05:26:43.156Z,1.00
2022-11-04T05:29:10.360Z,1.00
2022-11-04T05:31:36.930Z,1.00
2022-11-04T05:34:05.397Z,1.00
2022-11-04T05:36:33.190Z,1.00
2022-11-04T05:38:59.733Z,1.00
2022-11-04T05:41:26.263Z,1.00
2022-11-04T05:43:53.444Z,1.00
2022-11-04T05:46:20.039Z,1.00
2022-11-04T05:48:46.771Z,1.00
2022-11-04T05:51:16.486Z,1.00
2022-11-04T05:53:43.025Z,1.00
2022-11-04T05:56:09.548Z,1.00
2022-11-04T05:58:36.102Z,1.00
2022-11-04T06:01:12.228Z,1.00
2022-11-04T06:03:38.837Z,34.80
2022-11-04T06:06:05.509Z,99.90
2022-11-04T06:08:32.074Z,99.90
2022-11-04T06:10:58.616Z,99.90
2022-11-04T06:13:25.186Z,99.90
2022-11-04T06:15:51.764Z,99.90
2022-11-04T06:18:18.489Z,47.40
2022-11-04T06:20:45.062Z,34.50
2022-11-04T06:23:11.589Z,87.80
2022-11-04T06:25:38.142Z,99.90
2022-11-04T06:28:04.711Z,99.90
2022-11-04T06:30:31.264Z,99.90
2022-11-04T06:32:57.803Z,99.90
2022-11-04T06:35:24.354Z,99.90
2022-11-04T06:37:50.986Z,99.90
2022-11-04T06:40:17.542Z,99.90
2022-11-04T06:42:44.985Z,99.90
2022-11-04T06:45:11.966Z,99.90
2022-11-04T06:47:38.560Z,99.90
2022-11-04T06:50:05.302Z,99.90
2022-11-04T06:52:31.830Z,99.90
2022-11-04T06:54:58.395Z,99.90
2022-11-04T06:57:24.944Z,99.90
2022-11-04T06:59:51.491Z,99.90
2022-11-04T07:02:18.079Z,99.90
2022-11-04T07:04:44.702Z,1.00
2022-11-04T07:07:11.312Z,1.00
2022-11-04T07:09:38.370Z,1.00
2022-11-04T07:12:05.112Z,1.00
2022-11-04T07:14:31.704Z,1.00
2022-11-04T07:16:58.376Z,1.00
2022-11-04T07:19:24.918Z,1.00
2022-11-04T07:21:51.511Z,1.00
2022-11-04T07:24:18.282Z,1.00
2022-11-04T07:26:44.809Z,99.90
2022-11-04T07:29:11.394Z,99.90
2022-11-04T07:31:38.261Z,99.90
2022-11-04T07:34:04.809Z,99.90
2022-11-04T07:36:31.428Z,99.90
2022-11-04T07:38:57.984Z,62.10
2022-11-04T07:41:24.529Z,1.00
2022-11-04T07:43:56.141Z,1.00
2022-11-04T07:46:22.714Z,1.00
2022-11-04T07:48:49.292Z,1.00
2022-11-04T07:51:16.446Z,1.00
2022-11-04T07:53:43.176Z,1.00
2022-11-04T07:56:11.630Z,1.00
2022-11-04T07:58:38.195Z,1.00
2022-11-04T08:01:06.940Z,1.00
2022-11-04T08:03:33.837Z,1.00
2022-11-04T08:06:00.862Z,1.00
2022-11-04T08:08:27.606Z,1.00
2022-11-04T08:10:57.687Z,1.00
2022-11-04T08:13:26.881Z,1.00
2022-11-04T08:15:53.641Z,1.00
2022-11-04T08:18:20.169Z,1.00
2022-11-04T08:20:47.372Z,1.00
2022-11-04T08:23:13.907Z,1.00
2022-11-04T08:25:40.459Z,1.00
2022-11-04T08:28:07.014Z,1.00
2022-11-04T08:30:33.657Z,1.00
2022-11-04T08:33:00.198Z,1.00
2022-11-04T08:35:26.776Z,1.00
2022-11-04T08:37:53.335Z,1.00
2022-11-04T08:40:19.931Z,1.00
2022-11-04T08:42:46.467Z,1.00
2022-11-04T08:45:13.030Z,99.90
2022-11-04T08:47:39.566Z,99.90
2022-11-04T08:50:06.312Z,99.90
2022-11-04T08:52:32.851Z,1.00
2022-11-04T08:54:59.402Z,99.90
2022-11-04T08:57:26.069Z,99.90
2022-11-04T08:59:52.631Z,99.90
2022-11-04T09:02:19.214Z,99.90
2022-11-04T09:04:45.762Z,99.90
2022-11-04T09:07:12.427Z,99.90
2022-11-04T09:09:40.145Z,99.90
2022-11-04T09:12:09.183Z,99.90
2022-11-04T09:14:35.784Z,99.90
2022-11-04T09:17:02.428Z,99.90
2022-11-04T09:19:29.179Z,99.90
2022-11-04T09:21:55.720Z,99.90
2022-11-04T09:24:22.339Z,99.90
2022-11-04T09:26:48.972Z,99.90
2022-11-04T09:29:16.556Z,99.90
2022-11-04T09:31:43.256Z,99.90
2022-11-04T09:34:09.820Z,90.30
2022-11-04T09:36:36.410Z,65.80
2022-11-04T09:39:03.003Z,46.50
2022-11-04T09:41:42.130Z,47.90
2022-11-04T09:44:14.548Z,13.70
2022-11-04T09:46:41.112Z,13.30
2022-11-04T09:49:08.687Z,1.00
2022-11-04T09:54:22.826Z,1.00
2022-11-04T09:56:51.187Z,1.00
2022-11-04T09:59:20.400Z,1.00
2022-11-04T10:02:05.802Z,1.00
2022-11-04T10:04:32.414Z,1.00
2022-11-04T10:07:17.894Z,1.00
2022-11-04T10:09:53.552Z,1.00
2022-11-04T10:12:35.360Z,1.00
2022-11-04T10:15:26.742Z,1.00
2022-11-04T10:18:03.083Z,1.00
2022-11-04T10:20:43.947Z,1.00
2022-11-04T10:23:17.876Z,1.00
2022-11-04T10:25:48.337Z,1.00
2022-11-04T10:28:19.388Z,1.00
2022-11-04T10:30:47.008Z,1.00
2022-11-04T10:33:19.870Z,1.00
2022-11-04T10:36:00.308Z,1.00
2022-11-04T10:38:41.952Z,1.00
2022-11-04T10:41:14.693Z,1.00
2022-11-04T10:43:41.267Z,1.00
2022-11-04T10:46:11.636Z,1.00
2022-11-04T10:48:43.851Z,1.00
2022-11-04T10:51:10.427Z,1.00
2022-11-04T10:53:37.672Z,1.00
2022-11-04T10:56:30.733Z,1.00
2022-11-04T10:58:57.316Z,1.00
2022-11-04T11:01:23.948Z,1.00
2022-11-04T11:03:50.558Z,1.00
2022-11-04T11:06:17.168Z,1.00
2022-11-04T11:08:43.781Z,1.00
2022-11-04T11:11:10.810Z,1.00
2022-11-04T11:13:38.527Z,1.00
2022-11-04T11:16:06.317Z,1.00
2022-11-04T11:18:32.867Z,1.00
2022-11-04T11:21:16.339Z,1.00
2022-11-04T11:23:43.687Z,1.00
2022-11-04T11:26:12.608Z,1.00
2022-11-04T11:28:40.452Z,99.90
2022-11-04T11:31:14.368Z,1.00
2022-11-04T11:33:42.055Z,1.00
2022-11-04T11:36:14.683Z,1.00
2022-11-04T11:39:01.307Z,1.00
2022-11-04T11:41:34.756Z,1.00
2022-11-04T11:44:21.198Z,99.90
2022-11-04T11:46:54.460Z,99.90
2022-11-04T11:49:25.351Z,99.90
2022-11-04T11:51:51.925Z,99.90
2022-11-04T11:54:22.714Z,99.90
2022-11-04T12:03:11.823Z,99.90
2022-11-04T12:11:15.974Z,99.90
2022-11-04T12:13:44.302Z,99.90
2022-11-04T12:16:11.039Z,99.90
2022-11-04T12:18:56.269Z,99.90
2022-11-04T12:21:33.197Z,99.90
2022-11-04T12:24:23.816Z,99.90
2022-11-04T12:26:56.895Z,99.90
2022-11-04T12:29:36.913Z,99.90
2022-11-04T12:32:11.127Z,99.90
2022-11-04T12:34:45.349Z,99.90
2022-11-04T12:37:11.884Z,99.90
2022-11-04T12:39:53.728Z,99.90
2022-11-04T12:42:28.096Z,99.90
2022-11-04T12:45:07.909Z,99.90
2022-11-04T12:47:43.778Z,99.90
2022-11-04T12:50:16.358Z,99.90
2022-11-04T12:52:52.063Z,99.90
2022-11-04T12:55:18.603Z,99.90
2022-11-04T12:57:53.725Z,99.90
2022-11-04T13:00:25.357Z,99.90
2022-11-04T13:02:54.239Z,99.90
2022-11-04T13:05:30.031Z,99.90
2022-11-04T13:07:57.885Z,99.90
2022-11-04T13:10:32.616Z,99.90
2022-11-04T13:13:01.967Z,99.90
2022-11-04T13:15:28.995Z,99.90
2022-11-04T13:18:00.311Z,99.90
2022-11-04T13:20:40.151Z,99.90
2022-11-04T13:23:07.768Z,99.90
2022-11-04T13:25:36.463Z,99.90
2022-11-04T13:28:03.108Z,99.90
2022-11-04T13:30:29.621Z,99.90
2022-11-04T13:33:04.930Z,99.90
2022-11-04T13:35:35.320Z,99.90
2022-11-04T13:38:05.966Z,99.90
2022-11-04T13:40:41.780Z,99.90
2022-11-04T13:43:31.692Z,99.90
2022-11-04T13:45:58.239Z,99.90
2022-11-04T13:48:26.412Z,99.90
2022-11-04T13:50:57.028Z,99.90
2022-11-04T13:53:27.960Z,99.90
2022-11-04T13:55:56.231Z,99.90
2022-11-04T13:58:27.900Z,99.90
2022-11-04T14:01:14.104Z,99.90
2022-11-04T14:03:50.753Z,99.90
2022-11-04T14:06:17.312Z,99.90
2022-11-04T14:09:02.659Z,99.90
2022-11-04T14:11:29.247Z,99.90
2022-11-04T14:14:02.920Z,99.90
2022-11-04T14:16:29.434Z,99.90
2022-11-04T14:18:55.975Z,99.90
2022-11-04T14:21:26.225Z,99.90
2022-11-04T14:23:53.394Z,99.90
2022-11-04T14:26:21.043Z,99.90
2022-11-04T14:28:48.009Z,99.90
2022-11-04T14:31:17.708Z,99.90
2022-11-04T14:33:54.296Z,99.90
2022-11-04T14:36:20.885Z,99.90
2022-11-04T14:39:02.739Z,99.90
2022-11-04T14:41:29.314Z,99.90
2022-11-04T14:43:57.065Z,99.90
2022-11-04T14:46:25.516Z,99.90
2022-11-04T14:48:53.338Z,99.90
2022-11-04T14:51:23.003Z,99.90
2022-11-04T14:53:49.532Z,99.90
2022-11-04T14:56:23.237Z,99.90
2022-11-04T14:58:57.169Z,99.90
2022-11-04T15:01:26.520Z,99.90
2022-11-04T15:04:11.712Z,99.90
2022-11-04T15:06:55.545Z,99.90
2022-11-04T15:09:26.721Z,99.90
2022-11-04T15:12:25.109Z,99.90
2022-11-04T15:14:52.363Z,99.90
2022-11-04T15:17:19.560Z,99.90
2022-11-04T15:19:48.035Z,99.90
2022-11-04T15:22:14.726Z,1.00
2022-11-04T15:24:41.702Z,1.00
2022-11-04T15:27:10.395Z,1.00
2022-11-04T15:29:36.976Z,1.00
2022-11-04T15:32:05.110Z,1.00
2022-11-04T15:34:32.063Z,1.00
2022-11-04T15:37:04.146Z,1.00
2022-11-04T15:39:31.553Z,1.00
2022-11-04T15:42:16.945Z,1.00
2022-11-04T15:44:47.576Z,1.00
2022-11-04T15:47:17.250Z,1.00
2022-11-04T15:49:43.818Z,1.00
2022-11-04T15:52:16.632Z,1.00
2022-11-04T15:54:43.618Z,1.00
2022-11-04T15:57:14.455Z,1.00
2022-11-04T15:59:45.142Z,1.00
2022-11-04T16:02:24.121Z,1.00
2022-11-04T16:05:02.747Z,1.00
2022-11-04T16:07:30.648Z,1.00
2022-11-04T16:09:57.402Z,1.00
2022-11-04T16:12:26.801Z,1.00
2022-11-04T16:14:56.762Z,1.00
2022-11-04T16:17:23.449Z,1.00
2022-11-04T16:19:57.163Z,1.00
2022-11-04T16:22:27.619Z,1.00
2022-11-04T16:24:54.218Z,1.00
2022-11-04T16:27:21.032Z,1.00
2022-11-04T16:29:51.679Z,1.00
2022-11-04T16:32:19.604Z,1.00
2022-11-04T16:34:46.847Z,1.00
2022-11-04T16:37:13.531Z,1.00
2022-11-04T16:39:40.156Z,1.00
2022-11-04T16:42:06.816Z,1.00
2022-11-04T16:44:33.418Z,1.00
2022-11-04T16:46:59.968Z,1.00
2022-11-04T16:49:26.512Z,1.00
2022-11-04T16:51:54.166Z,1.00
2022-11-04T16:54:20.858Z,1.00
2022-11-04T16:56:47.432Z,1.00
2022-11-04T16:59:13.980Z,1.00
2022-11-04T17:01:40.634Z,1.00
2022-11-04T17:04:07.367Z,1.00
2022-11-04T17:06:34.423Z,1.00
2022-11-04T17:09:01.356Z,1.00
2022-11-04T17:11:30.167Z,1.00
2022-11-04T17:13:56.742Z,1.00
2022-11-04T17:16:23.320Z,1.00
2022-11-04T17:18:50.021Z,1.00
2022-11-04T17:21:17.116Z,1.00
2022-11-04T17:23:44.579Z,1.00
2022-11-04T17:26:14.298Z,1.00
2022-11-04T17:28:41.388Z,1.00
2022-11-04T17:31:08.036Z,1.00
2022-11-04T17:33:34.687Z,1.00
2022-11-04T17:36:07.321Z,1.00
2022-11-04T17:38:34.298Z,1.00
2022-11-04T17:41:19.763Z,1.00
2022-11-04T17:44:01.641Z,1.00
2022-11-04T17:46:34.275Z,1.00
2022-11-04T17:49:19.916Z,1.00
2022-11-04T17:51:47.294Z,1.00
2022-11-04T17:54:14.062Z,1.00
2022-11-04T17:56:40.788Z,1.00
2022-11-04T17:59:07.563Z,1.00
2022-11-04T18:01:34.455Z,1.00
2022-11-04T18:04:01.426Z,1.00
2022-11-04T18:06:29.555Z,1.00
2022-11-04T18:08:56.262Z,1.00
2022-11-04T18:11:41.783Z,1.00
2022-11-04T18:14:13.767Z,1.00
2022-11-04T18:16:43.225Z,1.00
2022-11-04T18:19:09.848Z,1.00
2022-11-04T18:21:36.491Z,1.00
2022-11-04T18:24:04.170Z,1.00
2022-11-04T18:26:30.715Z,1.00
2022-11-04T18:28:57.795Z,1.00
2022-11-04T18:31:25.457Z,1.00
2022-11-04T18:33:52.019Z,1.00
2022-11-04T18:36:18.562Z,1.00
2022-11-04T18:38:45.597Z,1.00
2022-11-04T18:41:12.147Z,1.00
2022-11-04T18:43:38.692Z,1.00
2022-11-04T18:46:09.092Z,1.00
2022-11-04T18:48:35.703Z,1.00
2022-11-04T18:51:02.353Z,1.00
2022-11-04T18:53:28.912Z,1.00
2022-11-04T18:55:55.478Z,1.00
2022-11-04T18:58:22.470Z,1.00
2022-11-04T19:00:49.023Z,1.00
2022-11-04T19:03:15.568Z,1.00
2022-11-04T19:05:42.291Z,1.00
2022-11-04T19:08:09.174Z,1.00
2022-11-04T19:10:51.729Z,1.00
2022-11-04T19:13:23.383Z,1.00
2022-11-04T19:15:50.007Z,1.00
2022-11-04T19:18:16.757Z,1.00
2022-11-04T19:20:43.629Z,1.00
2022-11-04T19:23:10.693Z,1.00
2022-11-04T19:25:41.173Z,1.00
2022-11-04T19:28:32.654Z,1.00
2022-11-04T19:31:01.983Z,1.00
2022-11-04T19:33:29.007Z,1.00
2022-11-04T19:35:55.912Z,1.00
2022-11-04T19:38:24.272Z,1.00
2022-11-04T19:40:52.222Z,1.00
2022-11-04T19:43:19.698Z,1.00
2022-11-04T19:45:46.420Z,1.00
2022-11-04T19:48:13.460Z,1.00
2022-11-04T19:50:47.320Z,1.00
2022-11-04T19:53:14.187Z,1.00
2022-11-04T19:55:40.994Z,1.00
2022-11-04T19:58:08.151Z,1.00
2022-11-04T20:00:35.022Z,1.00
2022-11-04T20:03:01.614Z,1.00
2022-11-04T20:05:28.258Z,1.00
2022-11-04T20:07:55.010Z,1.00
2022-11-04T20:10:22.313Z,1.00
2022-11-04T20:13:07.883Z,1.00
2022-11-04T20:15:34.522Z,4.60
2022-11-04T20:18:01.054Z,6.50
2022-11-04T20:20:27.606Z,12.40
2022-11-04T20:22:54.407Z,9.90
2022-11-04T20:25:20.963Z,7.90
2022-11-04T20:27:47.514Z,1.00
2022-11-04T20:30:14.063Z,1.00
2022-11-04T20:32:40.625Z,2.50
2022-11-04T20:35:07.290Z,11.80
2022-11-04T20:37:33.839Z,4.70
2022-11-04T20:40:00.509Z,5.50
2022-11-04T20:42:27.121Z,16.90
2022-11-04T20:44:53.754Z,25.10
2022-11-04T20:47:20.324Z,52.50
2022-11-04T20:49:47.368Z,99.90
2022-11-04T20:52:13.991Z,99.90
2022-11-04T20:54:40.544Z,99.90
2022-11-04T20:57:07.801Z,99.90
2022-11-04T20:59:34.359Z,99.90
2022-11-04T21:02:01.070Z,99.90
2022-11-04T21:04:31.831Z,99.90
2022-11-04T21:07:02.770Z,99.90
2022-11-04T21:09:29.797Z,99.90
2022-11-04T21:11:57.866Z,99.90
2022-11-04T21:14:24.398Z,99.90
2022-11-04T21:16:50.982Z,99.90
2022-11-04T21:19:17.732Z,99.90
2022-11-04T21:21:44.390Z,99.90
2022-11-04T21:24:11.503Z,99.90
2022-11-04T21:26:38.419Z,99.90
2022-11-04T21:29:05.987Z,99.90
2022-11-04T21:31:32.957Z,99.90
2022-11-04T21:33:59.629Z,99.90
2022-11-04T21:36:26.206Z,99.90
2022-11-04T21:38:52.752Z,99.90
2022-11-04T21:41:22.958Z,99.90
2022-11-04T21:43:53.373Z,99.90
2022-11-04T21:46:19.933Z,99.90
2022-11-04T21:48:46.697Z,99.90
2022-11-04T21:51:14.052Z,99.90
2022-11-04T21:53:40.589Z,99.90
2022-11-04T21:56:08.366Z,99.90
2022-11-04T21:58:35.010Z,99.90
2022-11-04T22:01:01.709Z,99.90
2022-11-04T22:03:28.329Z,99.90
2022-11-04T22:05:58.904Z,99.90
2022-11-04T22:08:25.483Z,99.90
2022-11-04T22:10:52.100Z,99.90
2022-11-04T22:13:18.642Z,99.90
2022-11-04T22:16:03.598Z,99.90
2022-11-04T22:18:30.865Z,1.00
2022-11-04T22:20:57.580Z,1.00
2022-11-04T22:23:24.142Z,1.00
2022-11-04T22:25:50.684Z,1.00
2022-11-04T22:28:17.258Z,1.00
2022-11-04T22:30:43.862Z,1.00
2022-11-04T22:33:10.859Z,1.00
2022-11-04T22:35:37.662Z,1.00
2022-11-04T22:38:04.233Z,1.00
2022-11-04T22:40:30.758Z,1.00
2022-11-04T22:42:57.322Z,1.00
2022-11-04T22:45:23.854Z,1.00
2022-11-04T22:47:50.421Z,1.00
2022-11-04T22:50:17.379Z,1.00
2022-11-04T22:52:43.997Z,1.00
2022-11-04T22:55:11.570Z,1.00
2022-11-04T22:57:38.122Z,1.00
2022-11-04T23:00:05.910Z,1.00
2022-11-04T23:02:36.807Z,1.00
2022-11-04T23:05:04.106Z,1.00
2022-11-04T23:07:30.773Z,1.00
2022-11-04T23:10:15.804Z,99.90
2022-11-04T23:13:00.938Z,99.90
2022-11-04T23:15:46.034Z,99.90
2022-11-04T23:18:31.193Z,99.90
2022-11-04T23:21:16.504Z,99.90
2022-11-04T23:24:01.831Z,99.90
2022-11-04T23:26:28.541Z,99.90
2022-11-04T23:29:13.698Z,99.90
2022-11-04T23:31:40.388Z,99.90
2022-11-04T23:34:25.718Z,99.90
2022-11-04T23:37:10.794Z,99.90
2022-11-04T23:39:37.665Z,1.00
2022-11-04T23:42:16.469Z,1.00
2022-11-04T23:45:04.827Z,1.00
2022-11-04T23:47:50.801Z,1.00
2022-11-04T23:50:36.135Z,1.00
2022-11-04T23:53:21.542Z,1.00
2022-11-04T23:56:06.591Z,1.00
2022-11-04T23:58:51.929Z,1.00
